首页
METAR-TAF:

METAR-TAF

机场 :

阿尔及尔胡阿里·布迈丁机场

阿爾及爾, 阿尔及利亚

纬度: 36-43N, 经度: 003-15E, 海拔: 25米

当前天气观测

该预报发布于26分钟前的11:00 UTC
风速18节,风向
温度 12°C
湿度 58%
气压 1006 hPa
能见度10公里或以上
散云层高于2000英尺, 塔状积云.
多云层高于4600英尺

METAR: DAAG 241100Z 36018KT 9999 SCT020TCU BKN046 12/04 Q1006

时间: 12:26 (11:26 UTC)

预报

该预报发布于6小时和26分钟前的05:00 UTC
预报有效从24日的 06点(UTC)到 25日的 06点(UTC)
风速24节,风向北转西北
能見度: 8000
散云层高于4000英尺
短暂存在
从 24日的 06点(UTC)到 24日的 12点(UTC)
风速22节,风向北转西北,有时为35节阵风
能見度: 5000
少量云层高于2000英尺, 塔状积云.
少量云层高于2600英尺, 积雨云.
小雨
几率 30% :
短暂存在
从 24日的 12点(UTC)到 24日的 18点(UTC)
风速15节,风向西北,有时为25节阵风
少量云层高于2000英尺, 塔状积云.
成为
从 24日的 15点(UTC)到 24日的 19点(UTC)
风速14节,风向西

TAF: DAAG 240500Z 2406/2506 34024KT 8000 SCT040 TEMPO 2406/2412 34022G35KT 5000 -RA FEW020TCU FEW026CB PROB30 TEMPO 2412/2418 32015G25KT FEW020TCU BECMG 2415/2419 28014KT

超过4000个机场的气象观测和天气预报(METAR&TAF报告)。

可查询的气象台以黄色和红色小点在地图上表示。

将鼠标移到小点上方,可查看气象台名称。

然后点击查看天气观测和预报。

如需切换地图:点击带黑十字的绿色按钮放大地图;点击带横线的绿色按钮缩小地图;或者点击绿色箭头查看邻近地区的地图。


METAR-TAF: